sensor_id;sensor_type;location;lat;lon;timestamp;temperature;humidity
45945;DHT22;31655;48.972;10.686;2022-07-10T00:00:10;14.40;99.90
45945;DHT22;31655;48.972;10.686;2022-07-10T00:02:37;14.30;99.90
45945;DHT22;31655;48.972;10.686;2022-07-10T00:05:04;14.20;99.90
45945;DHT22;31655;48.972;10.686;2022-07-10T00:07:29;14.30;99.90
45945;DHT22;31655;48.972;10.686;2022-07-10T00:09:55;14.20;99.90
45945;DHT22;31655;48.972;10.686;2022-07-10T00:12:20;15.90;99.90
45945;DHT22;31655;48.972;10.686;2022-07-10T00:14:46;14.20;99.90
45945;DHT22;31655;48.972;10.686;2022-07-10T00:17:12;14.30;99.90
45945;DHT22;31655;48.972;10.686;2022-07-10T00:19:37;14.20;99.90
45945;DHT22;31655;48.972;10.686;2022-07-10T00:22:03;14.00;99.90
45945;DHT22;31655;48.972;10.686;2022-07-10T00:24:28;14.00;99.90
45945;DHT22;31655;48.972;10.686;2022-07-10T00:26:54;14.00;99.90
45945;DHT22;31655;48.972;10.686;2022-07-10T00:29:19;13.90;99.90
45945;DHT22;31655;48.972;10.686;2022-07-10T00:34:11;13.80;99.90
45945;DHT22;31655;48.972;10.686;2022-07-10T00:36:38;13.90;99.90
45945;DHT22;31655;48.972;10.686;2022-07-10T00:39:03;13.90;99.90
45945;DHT22;31655;48.972;10.686;2022-07-10T00:41:29;15.80;99.90
45945;DHT22;31655;48.972;10.686;2022-07-10T00:44:01;13.90;99.90
45945;DHT22;31655;48.972;10.686;2022-07-10T00:46:28;14.60;99.90
45945;DHT22;31655;48.972;10.686;2022-07-10T00:48:54;13.90;99.90
45945;DHT22;31655;48.972;10.686;2022-07-10T00:51:23;13.90;99.90
45945;DHT22;31655;48.972;10.686;2022-07-10T00:53:49;13.70;99.90
45945;DHT22;31655;48.972;10.686;2022-07-10T00:56:21;13.70;99.90
45945;DHT22;31655;48.972;10.686;2022-07-10T00:58:48;13.70;99.90
45945;DHT22;31655;48.972;10.686;2022-07-10T01:01:15;13.70;99.90
45945;DHT22;31655;48.972;10.686;2022-07-10T01:03:40;13.40;99.90
45945;DHT22;31655;48.972;10.686;2022-07-10T01:06:06;13.40;99.90
45945;DHT22;31655;48.972;10.686;2022-07-10T01:08:32;15.20;99.90
45945;DHT22;31655;48.972;10.686;2022-07-10T01:10:58;14.60;99.90
45945;DHT22;31655;48.972;10.686;2022-07-10T01:13:24;13.40;99.90
45945;DHT22;31655;48.972;10.686;2022-07-10T01:15:50;13.40;99.90
45945;DHT22;31655;48.972;10.686;2022-07-10T01:18:16;14.80;99.90
45945;DHT22;31655;48.972;10.686;2022-07-10T01:20:42;13.40;99.90
45945;DHT22;31655;48.972;10.686;2022-07-10T01:23:07;13.30;99.90
45945;DHT22;31655;48.972;10.686;2022-07-10T01:25:33;15.40;99.90
45945;DHT22;31655;48.972;10.686;2022-07-10T01:28:00;13.20;99.90
45945;DHT22;31655;48.972;10.686;2022-07-10T01:30:26;13.20;99.90
45945;DHT22;31655;48.972;10.686;2022-07-10T01:32:52;13.20;99.90
45945;DHT22;31655;48.972;10.686;2022-07-10T01:35:18;13.20;99.90
45945;DHT22;31655;48.972;10.686;2022-07-10T01:37:44;13.40;99.90
45945;DHT22;31655;48.972;10.686;2022-07-10T01:40:09;13.00;99.90
45945;DHT22;31655;48.972;10.686;2022-07-10T01:42:35;13.10;99.90
45945;DHT22;31655;48.972;10.686;2022-07-10T01:45:06;13.00;99.90
45945;DHT22;31655;48.972;10.686;2022-07-10T01:47:32;13.00;99.90
45945;DHT22;31655;48.972;10.686;2022-07-10T01:49:57;12.90;99.90
45945;DHT22;31655;48.972;10.686;2022-07-10T01:52:23;12.90;99.90
45945;DHT22;31655;48.972;10.686;2022-07-10T01:54:49;12.80;99.90
45945;DHT22;31655;48.972;10.686;2022-07-10T01:57:15;13.30;99.90
45945;DHT22;31655;48.972;10.686;2022-07-10T01:59:40;15.30;99.90
45945;DHT22;31655;48.972;10.686;2022-07-10T02:02:07;12.70;99.90
45945;DHT22;31655;48.972;10.686;2022-07-10T02:04:32;12.80;99.90
45945;DHT22;31655;48.972;10.686;2022-07-10T02:07:12;12.70;99.90
45945;DHT22;31655;48.972;10.686;2022-07-10T02:09:38;12.70;99.90
45945;DHT22;31655;48.972;10.686;2022-07-10T02:12:11;12.70;99.90
45945;DHT22;31655;48.972;10.686;2022-07-10T02:14:38;12.70;99.90
45945;DHT22;31655;48.972;10.686;2022-07-10T02:17:04;14.20;99.90
45945;DHT22;31655;48.972;10.686;2022-07-10T02:19:30;14.40;99.90
45945;DHT22;31655;48.972;10.686;2022-07-10T02:21:56;12.50;99.90
45945;DHT22;31655;48.972;10.686;2022-07-10T02:24:21;12.50;99.90
45945;DHT22;31655;48.972;10.686;2022-07-10T02:26:48;12.50;99.90
45945;DHT22;31655;48.972;10.686;2022-07-10T02:29:13;12.60;99.90
45945;DHT22;31655;48.972;10.686;2022-07-10T02:31:39;12.40;99.90
45945;DHT22;31655;48.972;10.686;2022-07-10T02:34:11;12.40;99.90
45945;DHT22;31655;48.972;10.686;2022-07-10T02:36:38;12.50;99.90
45945;DHT22;31655;48.972;10.686;2022-07-10T02:39:05;12.60;99.90
45945;DHT22;31655;48.972;10.686;2022-07-10T02:41:30;14.30;99.90
45945;DHT22;31655;48.972;10.686;2022-07-10T02:43:56;12.70;99.90
45945;DHT22;31655;48.972;10.686;2022-07-10T02:46:22;12.70;99.90
45945;DHT22;31655;48.972;10.686;2022-07-10T02:48:48;14.00;99.90
45945;DHT22;31655;48.972;10.686;2022-07-10T02:51:14;12.80;99.90
45945;DHT22;31655;48.972;10.686;2022-07-10T02:53:39;15.00;99.90
45945;DHT22;31655;48.972;10.686;2022-07-10T02:56:05;12.90;99.90
45945;DHT22;31655;48.972;10.686;2022-07-10T02:58:32;12.90;99.90
45945;DHT22;31655;48.972;10.686;2022-07-10T03:00:58;13.00;99.90
45945;DHT22;31655;48.972;10.686;2022-07-10T03:03:23;13.30;99.90
45945;DHT22;31655;48.972;10.686;2022-07-10T03:05:49;12.80;99.90
45945;DHT22;31655;48.972;10.686;2022-07-10T03:08:14;12.70;99.90
45945;DHT22;31655;48.972;10.686;2022-07-10T03:10:40;12.80;99.90
45945;DHT22;31655;48.972;10.686;2022-07-10T03:13:06;12.60;99.90
45945;DHT22;31655;48.972;10.686;2022-07-10T03:15:32;13.70;99.90
45945;DHT22;31655;48.972;10.686;2022-07-10T03:17:58;12.50;99.90
45945;DHT22;31655;48.972;10.686;2022-07-10T03:20:24;12.40;99.90
45945;DHT22;31655;48.972;10.686;2022-07-10T03:22:49;12.50;99.90
45945;DHT22;31655;48.972;10.686;2022-07-10T03:25:15;12.40;99.90
45945;DHT22;31655;48.972;10.686;2022-07-10T03:27:40;13.80;99.90
45945;DHT22;31655;48.972;10.686;2022-07-10T03:30:07;12.30;99.90
45945;DHT22;31655;48.972;10.686;2022-07-10T03:32:33;12.30;99.90
45945;DHT22;31655;48.972;10.686;2022-07-10T03:34:59;12.30;99.90
45945;DHT22;31655;48.972;10.686;2022-07-10T03:37:25;14.40;99.90
45945;DHT22;31655;48.972;10.686;2022-07-10T03:39:51;13.50;99.90
45945;DHT22;31655;48.972;10.686;2022-07-10T03:42:16;12.40;99.90
45945;DHT22;31655;48.972;10.686;2022-07-10T03:44:42;14.00;99.90
45945;DHT22;31655;48.972;10.686;2022-07-10T03:47:08;14.50;99.90
45945;DHT22;31655;48.972;10.686;2022-07-10T03:49:34;14.40;99.90
45945;DHT22;31655;48.972;10.686;2022-07-10T03:52:03;12.40;99.90
45945;DHT22;31655;48.972;10.686;2022-07-10T03:54:29;12.50;99.90
45945;DHT22;31655;48.972;10.686;2022-07-10T03:56:56;12.60;99.90
45945;DHT22;31655;48.972;10.686;2022-07-10T03:59:40;12.60;99.90
45945;DHT22;31655;48.972;10.686;2022-07-10T04:02:06;12.60;99.90
45945;DHT22;31655;48.972;10.686;2022-07-10T04:04:32;12.70;99.90
45945;DHT22;31655;48.972;10.686;2022-07-10T04:06:58;12.70;99.90
45945;DHT22;31655;48.972;10.686;2022-07-10T04:09:24;12.70;99.90
45945;DHT22;31655;48.972;10.686;2022-07-10T04:11:49;12.70;99.90
45945;DHT22;31655;48.972;10.686;2022-07-10T04:14:15;12.90;99.90
45945;DHT22;31655;48.972;10.686;2022-07-10T04:16:42;13.00;99.90
45945;DHT22;31655;48.972;10.686;2022-07-10T04:19:08;13.40;99.90
45945;DHT22;31655;48.972;10.686;2022-07-10T04:21:35;12.90;99.90
45945;DHT22;31655;48.972;10.686;2022-07-10T04:24:03;13.00;99.90
45945;DHT22;31655;48.972;10.686;2022-07-10T04:26:28;13.10;99.90
45945;DHT22;31655;48.972;10.686;2022-07-10T04:28:55;13.20;99.90
45945;DHT22;31655;48.972;10.686;2022-07-10T04:31:21;15.40;99.90
45945;DHT22;31655;48.972;10.686;2022-07-10T04:33:47;13.50;99.90
45945;DHT22;31655;48.972;10.686;2022-07-10T04:36:13;13.50;99.90
45945;DHT22;31655;48.972;10.686;2022-07-10T04:38:39;13.70;99.90
45945;DHT22;31655;48.972;10.686;2022-07-10T04:41:10;13.70;99.90
45945;DHT22;31655;48.972;10.686;2022-07-10T04:43:36;13.80;99.90
45945;DHT22;31655;48.972;10.686;2022-07-10T04:46:03;14.60;99.90
45945;DHT22;31655;48.972;10.686;2022-07-10T04:48:30;13.90;99.90
45945;DHT22;31655;48.972;10.686;2022-07-10T04:50:56;13.90;99.90
45945;DHT22;31655;48.972;10.686;2022-07-10T04:53:22;13.80;99.90
45945;DHT22;31655;48.972;10.686;2022-07-10T04:55:48;13.70;99.90
45945;DHT22;31655;48.972;10.686;2022-07-10T04:58:14;14.40;99.90
45945;DHT22;31655;48.972;10.686;2022-07-10T05:00:39;14.10;99.90
45945;DHT22;31655;48.972;10.686;2022-07-10T05:03:05;14.10;99.90
45945;DHT22;31655;48.972;10.686;2022-07-10T05:05:30;15.00;99.90
45945;DHT22;31655;48.972;10.686;2022-07-10T05:07:56;14.40;99.90
45945;DHT22;31655;48.972;10.686;2022-07-10T05:10:22;14.70;99.90
45945;DHT22;31655;48.972;10.686;2022-07-10T05:12:48;14.30;99.90
45945;DHT22;31655;48.972;10.686;2022-07-10T05:15:13;14.60;99.90
45945;DHT22;31655;48.972;10.686;2022-07-10T05:17:39;16.30;99.90
45945;DHT22;31655;48.972;10.686;2022-07-10T05:20:05;15.80;99.90
45945;DHT22;31655;48.972;10.686;2022-07-10T05:22:30;16.80;99.90
45945;DHT22;31655;48.972;10.686;2022-07-10T05:24:56;17.50;99.90
45945;DHT22;31655;48.972;10.686;2022-07-10T05:27:22;17.30;99.90
45945;DHT22;31655;48.972;10.686;2022-07-10T05:29:48;17.20;99.90
45945;DHT22;31655;48.972;10.686;2022-07-10T05:32:13;16.80;99.90
45945;DHT22;31655;48.972;10.686;2022-07-10T05:34:40;16.40;99.90
45945;DHT22;31655;48.972;10.686;2022-07-10T05:37:06;15.90;99.90
45945;DHT22;31655;48.972;10.686;2022-07-10T05:39:32;15.60;99.90
45945;DHT22;31655;48.972;10.686;2022-07-10T05:41:58;15.40;99.90
45945;DHT22;31655;48.972;10.686;2022-07-10T05:44:24;15.00;99.90
45945;DHT22;31655;48.972;10.686;2022-07-10T05:46:50;15.00;99.90
45945;DHT22;31655;48.972;10.686;2022-07-10T05:49:15;14.80;99.90
45945;DHT22;31655;48.972;10.686;2022-07-10T05:51:41;14.60;99.90
45945;DHT22;31655;48.972;10.686;2022-07-10T05:54:08;15.50;99.90
45945;DHT22;31655;48.972;10.686;2022-07-10T05:56:33;15.60;99.90
45945;DHT22;31655;48.972;10.686;2022-07-10T05:58:59;14.20;99.90
45945;DHT22;31655;48.972;10.686;2022-07-10T06:01:25;14.30;99.90
45945;DHT22;31655;48.972;10.686;2022-07-10T06:03:51;14.40;99.90
45945;DHT22;31655;48.972;10.686;2022-07-10T06:06:17;17.30;99.90
45945;DHT22;31655;48.972;10.686;2022-07-10T06:08:44;14.60;99.90
45945;DHT22;31655;48.972;10.686;2022-07-10T06:11:09;14.60;99.90
45945;DHT22;31655;48.972;10.686;2022-07-10T06:13:36;15.20;99.90
45945;DHT22;31655;48.972;10.686;2022-07-10T06:16:01;14.50;99.90
45945;DHT22;31655;48.972;10.686;2022-07-10T06:18:27;14.40;99.90
45945;DHT22;31655;48.972;10.686;2022-07-10T06:20:52;14.30;99.90
45945;DHT22;31655;48.972;10.686;2022-07-10T06:23:18;14.60;99.90
45945;DHT22;31655;48.972;10.686;2022-07-10T06:25:43;14.30;99.90
45945;DHT22;31655;48.972;10.686;2022-07-10T06:28:09;14.00;99.90
45945;DHT22;31655;48.972;10.686;2022-07-10T06:30:35;14.20;99.90
45945;DHT22;31655;48.972;10.686;2022-07-10T06:33:00;14.30;99.90
45945;DHT22;31655;48.972;10.686;2022-07-10T06:35:26;14.80;99.90
45945;DHT22;31655;48.972;10.686;2022-07-10T06:37:52;15.50;99.90
45945;DHT22;31655;48.972;10.686;2022-07-10T06:40:17;16.60;99.90
45945;DHT22;31655;48.972;10.686;2022-07-10T06:42:45;17.40;99.90
45945;DHT22;31655;48.972;10.686;2022-07-10T06:45:11;17.70;99.90
45945;DHT22;31655;48.972;10.686;2022-07-10T06:47:37;17.30;99.90
45945;DHT22;31655;48.972;10.686;2022-07-10T06:50:21;16.90;99.90
45945;DHT22;31655;48.972;10.686;2022-07-10T06:52:48;16.20;99.90
45945;DHT22;31655;48.972;10.686;2022-07-10T06:55:14;16.30;99.90
45945;DHT22;31655;48.972;10.686;2022-07-10T06:57:40;16.80;99.90
45945;DHT22;31655;48.972;10.686;2022-07-10T07:00:06;17.90;99.90
45945;DHT22;31655;48.972;10.686;2022-07-10T07:02:32;19.70;99.90
45945;DHT22;31655;48.972;10.686;2022-07-10T07:04:58;20.80;99.90
45945;DHT22;31655;48.972;10.686;2022-07-10T07:07:23;22.30;95.10
45945;DHT22;31655;48.972;10.686;2022-07-10T07:09:49;23.30;89.60
45945;DHT22;31655;48.972;10.686;2022-07-10T07:12:17;23.40;81.30
45945;DHT22;31655;48.972;10.686;2022-07-10T07:14:43;23.80;76.70
45945;DHT22;31655;48.972;10.686;2022-07-10T07:17:09;24.60;70.90
45945;DHT22;31655;48.972;10.686;2022-07-10T07:19:37;25.00;68.20
45945;DHT22;31655;48.972;10.686;2022-07-10T07:22:22;27.00;64.80
45945;DHT22;31655;48.972;10.686;2022-07-10T07:25:08;24.90;64.40
45945;DHT22;31655;48.972;10.686;2022-07-10T07:27:34;23.40;66.10
45945;DHT22;31655;48.972;10.686;2022-07-10T07:30:04;22.50;68.50
45945;DHT22;31655;48.972;10.686;2022-07-10T07:32:32;21.80;69.10
45945;DHT22;31655;48.972;10.686;2022-07-10T07:34:58;21.00;70.20
45945;DHT22;31655;48.972;10.686;2022-07-10T07:37:44;20.50;73.00
45945;DHT22;31655;48.972;10.686;2022-07-10T07:40:12;19.80;76.50
45945;DHT22;31655;48.972;10.686;2022-07-10T07:42:38;19.60;78.30
45945;DHT22;31655;48.972;10.686;2022-07-10T07:45:05;20.90;73.90
45945;DHT22;31655;48.972;10.686;2022-07-10T07:47:31;22.40;69.40
45945;DHT22;31655;48.972;10.686;2022-07-10T07:50:07;23.70;67.00
45945;DHT22;31655;48.972;10.686;2022-07-10T07:52:33;24.90;64.30
45945;DHT22;31655;48.972;10.686;2022-07-10T07:55:00;25.50;62.10
45945;DHT22;31655;48.972;10.686;2022-07-10T07:57:26;25.60;60.50
45945;DHT22;31655;48.972;10.686;2022-07-10T07:59:52;25.80;59.60
45945;DHT22;31655;48.972;10.686;2022-07-10T08:02:17;24.70;61.10
45945;DHT22;31655;48.972;10.686;2022-07-10T08:04:43;24.60;61.30
45945;DHT22;31655;48.972;10.686;2022-07-10T08:07:08;26.90;61.90
45945;DHT22;31655;48.972;10.686;2022-07-10T08:09:34;24.10;63.10
45945;DHT22;31655;48.972;10.686;2022-07-10T08:12:00;24.40;62.90
45945;DHT22;31655;48.972;10.686;2022-07-10T08:14:26;24.30;60.80
45945;DHT22;31655;48.972;10.686;2022-07-10T08:16:51;24.30;61.90
45945;DHT22;31655;48.972;10.686;2022-07-10T08:19:17;24.20;60.50
45945;DHT22;31655;48.972;10.686;2022-07-10T08:21:43;23.30;62.90
45945;DHT22;31655;48.972;10.686;2022-07-10T08:24:09;22.60;64.00
45945;DHT22;31655;48.972;10.686;2022-07-10T08:26:34;21.70;66.20
45945;DHT22;31655;48.972;10.686;2022-07-10T08:29:00;20.60;69.80
45945;DHT22;31655;48.972;10.686;2022-07-10T08:31:25;20.10;71.10
45945;DHT22;31655;48.972;10.686;2022-07-10T08:33:51;19.70;72.50
45945;DHT22;31655;48.972;10.686;2022-07-10T08:36:17;19.80;73.10
45945;DHT22;31655;48.972;10.686;2022-07-10T08:38:43;19.80;72.90
45945;DHT22;31655;48.972;10.686;2022-07-10T08:41:11;19.60;74.30
45945;DHT22;31655;48.972;10.686;2022-07-10T08:43:38;19.50;73.70
45945;DHT22;31655;48.972;10.686;2022-07-10T08:46:05;20.90;73.50
45945;DHT22;31655;48.972;10.686;2022-07-10T08:48:32;21.60;69.30
45945;DHT22;31655;48.972;10.686;2022-07-10T08:51:04;21.90;69.20
45945;DHT22;31655;48.972;10.686;2022-07-10T08:53:31;21.60;69.50
45945;DHT22;31655;48.972;10.686;2022-07-10T08:55:58;22.00;69.70
45945;DHT22;31655;48.972;10.686;2022-07-10T08:58:24;22.40;69.10
45945;DHT22;31655;48.972;10.686;2022-07-10T09:00:50;23.20;65.90
45945;DHT22;31655;48.972;10.686;2022-07-10T09:03:15;24.40;63.50
45945;DHT22;31655;48.972;10.686;2022-07-10T09:05:41;25.00;59.90
45945;DHT22;31655;48.972;10.686;2022-07-10T09:08:27;23.90;62.00
45945;DHT22;31655;48.972;10.686;2022-07-10T09:11:16;23.00;63.60
45945;DHT22;31655;48.972;10.686;2022-07-10T09:14:03;22.30;66.40
45945;DHT22;31655;48.972;10.686;2022-07-10T09:16:31;21.60;67.40
45945;DHT22;31655;48.972;10.686;2022-07-10T09:21:39;22.60;70.50
45945;DHT22;31655;48.972;10.686;2022-07-10T09:24:08;21.50;68.60
45945;DHT22;31655;48.972;10.686;2022-07-10T09:26:37;21.30;67.00
45945;DHT22;31655;48.972;10.686;2022-07-10T09:29:11;21.20;67.40
45945;DHT22;31655;48.972;10.686;2022-07-10T09:31:53;21.10;68.30
45945;DHT22;31655;48.972;10.686;2022-07-10T09:34:39;21.00;68.50
45945;DHT22;31655;48.972;10.686;2022-07-10T09:39:53;21.20;69.40
45945;DHT22;31655;48.972;10.686;2022-07-10T09:45:13;20.80;68.60
45945;DHT22;31655;48.972;10.686;2022-07-10T09:47:41;20.70;68.70
45945;DHT22;31655;48.972;10.686;2022-07-10T09:50:24;21.00;68.30
45945;DHT22;31655;48.972;10.686;2022-07-10T09:52:55;22.10;64.80
45945;DHT22;31655;48.972;10.686;2022-07-10T09:55:22;24.60;65.50
45945;DHT22;31655;48.972;10.686;2022-07-10T09:57:53;23.70;59.60
45945;DHT22;31655;48.972;10.686;2022-07-10T10:00:22;23.70;60.30
45945;DHT22;31655;48.972;10.686;2022-07-10T10:02:53;22.90;60.50
45945;DHT22;31655;48.972;10.686;2022-07-10T10:05:21;22.20;62.90
45945;DHT22;31655;48.972;10.686;2022-07-10T10:07:49;21.80;65.10
45945;DHT22;31655;48.972;10.686;2022-07-10T10:10:15;21.10;65.40
45945;DHT22;31655;48.972;10.686;2022-07-10T10:12:52;21.60;65.50
45945;DHT22;31655;48.972;10.686;2022-07-10T10:15:21;21.60;65.90
45945;DHT22;31655;48.972;10.686;2022-07-10T10:17:49;21.40;65.50
45945;DHT22;31655;48.972;10.686;2022-07-10T10:20:16;21.70;64.60
45945;DHT22;31655;48.972;10.686;2022-07-10T10:23:01;21.30;66.20
45945;DHT22;31655;48.972;10.686;2022-07-10T10:25:28;21.20;66.90
45945;DHT22;31655;48.972;10.686;2022-07-10T10:27:58;20.90;67.90
45945;DHT22;31655;48.972;10.686;2022-07-10T10:30:24;20.80;67.30
45945;DHT22;31655;48.972;10.686;2022-07-10T10:32:50;21.20;66.20
45945;DHT22;31655;48.972;10.686;2022-07-10T10:35:41;21.70;65.40
45945;DHT22;31655;48.972;10.686;2022-07-10T10:38:08;21.60;65.70
45945;DHT22;31655;48.972;10.686;2022-07-10T10:40:34;21.70;66.80
45945;DHT22;31655;48.972;10.686;2022-07-10T10:43:18;21.30;65.10
45945;DHT22;31655;48.972;10.686;2022-07-10T10:45:45;21.40;65.00
45945;DHT22;31655;48.972;10.686;2022-07-10T10:48:16;21.80;65.30
45945;DHT22;31655;48.972;10.686;2022-07-10T10:53:16;22.00;65.70
45945;DHT22;31655;48.972;10.686;2022-07-10T10:58:41;22.20;64.00
45945;DHT22;31655;48.972;10.686;2022-07-10T11:06:52;22.80;63.50
45945;DHT22;31655;48.972;10.686;2022-07-10T11:12:06;22.90;60.80
45945;DHT22;31655;48.972;10.686;2022-07-10T11:14:36;22.20;62.20
45945;DHT22;31655;48.972;10.686;2022-07-10T11:17:06;21.90;63.40
45945;DHT22;31655;48.972;10.686;2022-07-10T11:19:34;22.00;60.50
45945;DHT22;31655;48.972;10.686;2022-07-10T11:22:28;22.70;59.90
45945;DHT22;31655;48.972;10.686;2022-07-10T11:25:20;22.90;59.10
45945;DHT22;31655;48.972;10.686;2022-07-10T11:28:11;22.50;60.70
45945;DHT22;31655;48.972;10.686;2022-07-10T11:30:51;22.40;61.60
45945;DHT22;31655;48.972;10.686;2022-07-10T11:33:18;21.90;62.50
45945;DHT22;31655;48.972;10.686;2022-07-10T11:35:51;21.80;62.60
45945;DHT22;31655;48.972;10.686;2022-07-10T11:38:24;22.20;64.50
45945;DHT22;31655;48.972;10.686;2022-07-10T11:40:51;22.70;62.50
45945;DHT22;31655;48.972;10.686;2022-07-10T11:43:19;22.60;61.30
45945;DHT22;31655;48.972;10.686;2022-07-10T11:45:47;22.70;61.70
45945;DHT22;31655;48.972;10.686;2022-07-10T11:48:21;22.40;62.20
45945;DHT22;31655;48.972;10.686;2022-07-10T11:50:47;22.30;61.70
45945;DHT22;31655;48.972;10.686;2022-07-10T11:53:13;22.30;60.70
45945;DHT22;31655;48.972;10.686;2022-07-10T11:55:39;21.80;62.40
45945;DHT22;31655;48.972;10.686;2022-07-10T11:58:19;21.80;61.70
45945;DHT22;31655;48.972;10.686;2022-07-10T12:01:02;21.70;61.90
45945;DHT22;31655;48.972;10.686;2022-07-10T12:03:30;21.60;62.40
45945;DHT22;31655;48.972;10.686;2022-07-10T12:06:02;21.60;61.40
45945;DHT22;31655;48.972;10.686;2022-07-10T12:08:29;21.70;61.30
45945;DHT22;31655;48.972;10.686;2022-07-10T12:10:55;21.80;61.00
45945;DHT22;31655;48.972;10.686;2022-07-10T12:13:21;21.60;61.20
45945;DHT22;31655;48.972;10.686;2022-07-10T12:15:47;21.70;61.00
45945;DHT22;31655;48.972;10.686;2022-07-10T12:18:21;21.60;61.20
45945;DHT22;31655;48.972;10.686;2022-07-10T12:20:48;21.90;62.20
45945;DHT22;31655;48.972;10.686;2022-07-10T12:23:18;22.00;61.10
45945;DHT22;31655;48.972;10.686;2022-07-10T12:25:45;22.10;59.20
45945;DHT22;31655;48.972;10.686;2022-07-10T12:28:12;22.20;60.50
45945;DHT22;31655;48.972;10.686;2022-07-10T12:30:40;22.60;60.70
45945;DHT22;31655;48.972;10.686;2022-07-10T12:33:10;22.60;59.20
45945;DHT22;31655;48.972;10.686;2022-07-10T12:35:54;22.90;60.00
45945;DHT22;31655;48.972;10.686;2022-07-10T12:38:26;22.20;60.40
45945;DHT22;31655;48.972;10.686;2022-07-10T12:41:07;22.20;60.70
45945;DHT22;31655;48.972;10.686;2022-07-10T12:43:32;22.10;60.50
45945;DHT22;31655;48.972;10.686;2022-07-10T12:46:10;21.80;61.00
45945;DHT22;31655;48.972;10.686;2022-07-10T12:48:36;21.90;60.40
45945;DHT22;31655;48.972;10.686;2022-07-10T12:51:24;21.50;60.60
45945;DHT22;31655;48.972;10.686;2022-07-10T12:53:51;21.50;61.80
45945;DHT22;31655;48.972;10.686;2022-07-10T12:56:31;21.30;62.20
45945;DHT22;31655;48.972;10.686;2022-07-10T12:58:58;21.00;61.80
45945;DHT22;31655;48.972;10.686;2022-07-10T13:01:25;20.70;63.20
45945;DHT22;31655;48.972;10.686;2022-07-10T13:03:58;20.60;63.20
45945;DHT22;31655;48.972;10.686;2022-07-10T13:06:28;20.30;64.00
45945;DHT22;31655;48.972;10.686;2022-07-10T13:08:54;20.00;64.50
45945;DHT22;31655;48.972;10.686;2022-07-10T13:11:19;19.80;65.40
45945;DHT22;31655;48.972;10.686;2022-07-10T13:13:45;19.80;65.70
45945;DHT22;31655;48.972;10.686;2022-07-10T13:16:11;19.80;65.80
45945;DHT22;31655;48.972;10.686;2022-07-10T13:18:36;19.60;64.70
45945;DHT22;31655;48.972;10.686;2022-07-10T13:21:02;19.70;64.70
45945;DHT22;31655;48.972;10.686;2022-07-10T13:23:29;19.40;66.20
45945;DHT22;31655;48.972;10.686;2022-07-10T13:25:56;19.30;66.60
45945;DHT22;31655;48.972;10.686;2022-07-10T13:28:22;19.40;66.50
45945;DHT22;31655;48.972;10.686;2022-07-10T13:30:48;19.40;66.10
45945;DHT22;31655;48.972;10.686;2022-07-10T13:33:13;20.20;66.40
45945;DHT22;31655;48.972;10.686;2022-07-10T13:35:39;20.00;64.00
45945;DHT22;31655;48.972;10.686;2022-07-10T13:38:06;20.00;64.00
45945;DHT22;31655;48.972;10.686;2022-07-10T13:40:34;20.10;64.80
45945;DHT22;31655;48.972;10.686;2022-07-10T13:43:00;20.10;63.30
45945;DHT22;31655;48.972;10.686;2022-07-10T13:45:26;20.30;63.80
45945;DHT22;31655;48.972;10.686;2022-07-10T13:48:04;20.20;63.70
45945;DHT22;31655;48.972;10.686;2022-07-10T13:50:30;20.20;64.00
45945;DHT22;31655;48.972;10.686;2022-07-10T13:52:56;20.10;64.10
45945;DHT22;31655;48.972;10.686;2022-07-10T13:55:22;20.00;64.20
45945;DHT22;31655;48.972;10.686;2022-07-10T13:57:47;20.10;63.80
45945;DHT22;31655;48.972;10.686;2022-07-10T14:00:13;19.90;65.10
45945;DHT22;31655;48.972;10.686;2022-07-10T14:02:39;19.80;65.00
45945;DHT22;31655;48.972;10.686;2022-07-10T14:05:05;19.90;64.90
45945;DHT22;31655;48.972;10.686;2022-07-10T14:07:30;19.70;64.70
45945;DHT22;31655;48.972;10.686;2022-07-10T14:09:56;19.90;64.60
45945;DHT22;31655;48.972;10.686;2022-07-10T14:12:23;21.80;65.50
45945;DHT22;31655;48.972;10.686;2022-07-10T14:14:49;19.70;64.20
45945;DHT22;31655;48.972;10.686;2022-07-10T14:17:14;19.70;65.40
45945;DHT22;31655;48.972;10.686;2022-07-10T14:19:40;20.00;65.90
45945;DHT22;31655;48.972;10.686;2022-07-10T14:22:07;20.00;64.30
45945;DHT22;31655;48.972;10.686;2022-07-10T14:24:32;20.30;64.30
45945;DHT22;31655;48.972;10.686;2022-07-10T14:26:58;20.20;64.00
45945;DHT22;31655;48.972;10.686;2022-07-10T14:29:24;20.10;64.20
45945;DHT22;31655;48.972;10.686;2022-07-10T14:31:49;20.00;64.50
45945;DHT22;31655;48.972;10.686;2022-07-10T14:34:17;19.50;64.90
45945;DHT22;31655;48.972;10.686;2022-07-10T14:36:43;19.70;64.90
45945;DHT22;31655;48.972;10.686;2022-07-10T14:39:08;19.40;65.70
45945;DHT22;31655;48.972;10.686;2022-07-10T14:41:34;19.50;66.10
45945;DHT22;31655;48.972;10.686;2022-07-10T14:44:00;19.50;66.10
45945;DHT22;31655;48.972;10.686;2022-07-10T14:46:26;19.60;66.60
45945;DHT22;31655;48.972;10.686;2022-07-10T14:48:51;19.50;66.80
45945;DHT22;31655;48.972;10.686;2022-07-10T14:51:17;19.40;66.90
45945;DHT22;31655;48.972;10.686;2022-07-10T14:53:42;19.50;66.80
45945;DHT22;31655;48.972;10.686;2022-07-10T14:56:11;19.40;67.30
45945;DHT22;31655;48.972;10.686;2022-07-10T14:58:37;19.90;66.60
45945;DHT22;31655;48.972;10.686;2022-07-10T15:01:03;20.30;65.10
45945;DHT22;31655;48.972;10.686;2022-07-10T15:03:29;20.50;64.90
45945;DHT22;31655;48.972;10.686;2022-07-10T15:05:55;20.60;64.10
45945;DHT22;31655;48.972;10.686;2022-07-10T15:08:25;20.70;63.90
45945;DHT22;31655;48.972;10.686;2022-07-10T15:10:51;20.70;63.00
45945;DHT22;31655;48.972;10.686;2022-07-10T15:13:17;20.30;63.40
45945;DHT22;31655;48.972;10.686;2022-07-10T15:15:42;19.80;64.80
45945;DHT22;31655;48.972;10.686;2022-07-10T15:18:08;19.50;65.90
45945;DHT22;31655;48.972;10.686;2022-07-10T15:20:35;19.50;67.00
45945;DHT22;31655;48.972;10.686;2022-07-10T15:23:05;19.60;65.60
45945;DHT22;31655;48.972;10.686;2022-07-10T15:25:30;19.60;65.90
45945;DHT22;31655;48.972;10.686;2022-07-10T15:27:56;20.00;65.80
45945;DHT22;31655;48.972;10.686;2022-07-10T15:30:22;20.20;64.10
45945;DHT22;31655;48.972;10.686;2022-07-10T15:32:47;20.30;64.60
45945;DHT22;31655;48.972;10.686;2022-07-10T15:35:13;20.20;64.80
45945;DHT22;31655;48.972;10.686;2022-07-10T15:40:05;20.10;64.60
45945;DHT22;31655;48.972;10.686;2022-07-10T15:42:31;19.90;65.40
45945;DHT22;31655;48.972;10.686;2022-07-10T15:44:57;19.80;65.30